Gettysburg, SD

06:40 CDT le 23 octobre 2014 (GMT -0500)
Aberdeen Regional | Change Station
CLOSE
Current Station
Aéroport
Location: Aberdeen,
Altitude: 1299 ft
Stations météo à proximité

Alt. 1299 ft 45.44 °N, 98.41 °W | Updated 47 minutes ago

Ciel dégagé
Ciel dégagé
33 ° F
Paraît 27 ° F
N
7
Vent Variable Vent de SSE

Aujourd'hui
Haut(e) -- | Bas -- ° F
--% Risque de précip.
Hier
Haut(e) -- | Bas -- ° F
Precip. -- pouce
8:06 AM 6:41 PM
Lune descendante, 0% visible
Pression 29.98 pouce
Visibilité 10.0 Miles terrestres
Nuages Ciel dégagé
Refroidissement éolien 27 ° F
Point de rosée 31 ° F
Humidité 92%
Précipitations 0.00 pouce
Profondeur de la couche neigeuse Non disponible.
UV 0 sur 12
Pollen 1.60 sur 12
Qualité de l'air Non disponible.
Flu Activity Sporadic
METAR KABR 231053Z AUTO 15006KT 10SM CLR 01/M01 A2995 RMK AO2 SLP151 T00061006

More Conditions Fewer Conditions

Pression 29.98 pouce
Visibilité 10.0 Miles terrestres
Nuages Ciel dégagé
Refroidissement éolien 27 ° F
Point de rosée 31 ° F
Humidité 92%
Précipitations 0.00 pouce
Profondeur de la couche neigeuse Non disponible.
UV 0 sur 12
Pollen 1.60 sur 12
Qualité de l'air Non disponible.
Flu Activity Sporadic
METAR KABR 231053Z AUTO 15006KT 10SM CLR 01/M01 A2995 RMK AO2 SLP151 T00061006

More Conditions Fewer Conditions

10-Day Weather Forecast

Almanac

Astronomie

Oct. 23, 2014 Lever Coucher
Temps réel 08:06 CDT 18:41 CDT
Crépuscule civil 07:36 CDT 19:11 CDT
Crépuscule nautique 07:02 CDT 19:45 CDT
Crépuscule astronomique 06:28 CDT 20:19 CDT
Lune 07:46 CDT 18:44 CDT
Durée de lumière visible 11h 35m
Longueur du jour
10h 35m
Tomorrow will be 2m 55s shorter.
Lune descendante, 0% of the Moon is Illuminated
Aujourd'hui
Lune descendante
Oct 23
Nouveau
Oct 30
Premier quartier
Nov 6
Pleine lune
Nov 14
Dernier quartier

Extrêmes aujourd'hui

State Highs State Lows

Community

WunderPhotos

Upload Photos

1,764,209 Photos téléchargées !

Nearby

Épaisseur de neige

Station Depth Altitude
North Rapid Creek 1 in 6130 ft
Blind Park 1 in 6890 ft

Activité sismique

Ville Distance Mag. Time & Date
No recent earthquake activity has been reported nearby.
Minimum magnitude displayed is 2.5.

Températures des eaux côtières

Lieu Température
Aucun rapport de station

Stations météo à proximité